sensor_id;sensor_type;location;lat;lon;timestamp;temperature;humidity
3942;DHT22;1985;48.592;8.850;2023-02-03T00:01:43;4.60;99.90
3942;DHT22;1985;48.592;8.850;2023-02-03T00:04:09;4.60;99.90
3942;DHT22;1985;48.592;8.850;2023-02-03T00:06:34;4.60;99.90
3942;DHT22;1985;48.592;8.850;2023-02-03T00:09:00;4.50;99.90
3942;DHT22;1985;48.592;8.850;2023-02-03T00:11:28;4.50;99.90
3942;DHT22;1985;48.592;8.850;2023-02-03T00:13:54;4.50;99.90
3942;DHT22;1985;48.592;8.850;2023-02-03T00:16:20;4.40;99.90
3942;DHT22;1985;48.592;8.850;2023-02-03T00:18:46;4.40;99.90
3942;DHT22;1985;48.592;8.850;2023-02-03T00:21:11;4.40;99.90
3942;DHT22;1985;48.592;8.850;2023-02-03T00:23:42;4.40;99.90
3942;DHT22;1985;48.592;8.850;2023-02-03T00:26:12;4.30;99.90
3942;DHT22;1985;48.592;8.850;2023-02-03T00:28:38;4.30;99.90
3942;DHT22;1985;48.592;8.850;2023-02-03T00:31:04;4.30;99.90
3942;DHT22;1985;48.592;8.850;2023-02-03T00:33:30;4.20;99.90
3942;DHT22;1985;48.592;8.850;2023-02-03T00:36:03;4.20;99.90
3942;DHT22;1985;48.592;8.850;2023-02-03T00:38:28;4.20;99.90
3942;DHT22;1985;48.592;8.850;2023-02-03T00:40:54;4.20;99.90
3942;DHT22;1985;48.592;8.850;2023-02-03T00:43:20;4.20;99.90
3942;DHT22;1985;48.592;8.850;2023-02-03T00:45:49;4.20;99.90
3942;DHT22;1985;48.592;8.850;2023-02-03T00:48:14;4.20;99.90
3942;DHT22;1985;48.592;8.850;2023-02-03T00:50:40;4.20;99.90
3942;DHT22;1985;48.592;8.850;2023-02-03T00:53:06;4.20;99.90
3942;DHT22;1985;48.592;8.850;2023-02-03T00:55:31;4.20;99.90
3942;DHT22;1985;48.592;8.850;2023-02-03T00:57:57;4.20;99.90
3942;DHT22;1985;48.592;8.850;2023-02-03T01:00:23;4.20;99.90
3942;DHT22;1985;48.592;8.850;2023-02-03T01:02:48;4.30;99.90
3942;DHT22;1985;48.592;8.850;2023-02-03T01:05:14;4.40;99.90
3942;DHT22;1985;48.592;8.850;2023-02-03T01:07:39;4.30;99.90
3942;DHT22;1985;48.592;8.850;2023-02-03T01:10:05;4.30;99.90
3942;DHT22;1985;48.592;8.850;2023-02-03T01:12:31;4.40;99.90
3942;DHT22;1985;48.592;8.850;2023-02-03T01:14:57;4.30;99.90
3942;DHT22;1985;48.592;8.850;2023-02-03T01:17:23;4.30;99.90
3942;DHT22;1985;48.592;8.850;2023-02-03T01:19:50;4.40;99.90
3942;DHT22;1985;48.592;8.850;2023-02-03T01:22:15;4.40;99.90
3942;DHT22;1985;48.592;8.850;2023-02-03T01:24:41;4.40;99.90
3942;DHT22;1985;48.592;8.850;2023-02-03T01:27:07;4.40;99.90
3942;DHT22;1985;48.592;8.850;2023-02-03T01:29:32;4.40;99.90
3942;DHT22;1985;48.592;8.850;2023-02-03T01:31:58;4.50;99.90
3942;DHT22;1985;48.592;8.850;2023-02-03T01:34:24;4.50;99.90
3942;DHT22;1985;48.592;8.850;2023-02-03T01:36:49;4.40;99.90
3942;DHT22;1985;48.592;8.850;2023-02-03T01:39:15;4.40;99.90
3942;DHT22;1985;48.592;8.850;2023-02-03T01:41:40;4.50;99.90
3942;DHT22;1985;48.592;8.850;2023-02-03T01:44:37;4.50;99.90
3942;DHT22;1985;48.592;8.850;2023-02-03T01:47:13;4.50;99.90
3942;DHT22;1985;48.592;8.850;2023-02-03T01:49:43;4.60;99.90
3942;DHT22;1985;48.592;8.850;2023-02-03T01:52:10;4.60;99.90
3942;DHT22;1985;48.592;8.850;2023-02-03T01:54:39;4.60;99.90
3942;DHT22;1985;48.592;8.850;2023-02-03T01:57:15;4.60;99.90
3942;DHT22;1985;48.592;8.850;2023-02-03T01:59:43;4.60;99.90
3942;DHT22;1985;48.592;8.850;2023-02-03T02:02:10;4.70;99.90
3942;DHT22;1985;48.592;8.850;2023-02-03T02:04:54;4.90;99.90
3942;DHT22;1985;48.592;8.850;2023-02-03T02:07:22;4.90;99.90
3942;DHT22;1985;48.592;8.850;2023-02-03T02:09:48;5.00;99.90
3942;DHT22;1985;48.592;8.850;2023-02-03T02:12:14;5.00;99.90
3942;DHT22;1985;48.592;8.850;2023-02-03T02:14:40;5.10;99.90
3942;DHT22;1985;48.592;8.850;2023-02-03T02:17:13;5.00;99.90
3942;DHT22;1985;48.592;8.850;2023-02-03T02:20:16;4.90;99.90
3942;DHT22;1985;48.592;8.850;2023-02-03T02:34:23;5.10;99.90
3942;DHT22;1985;48.592;8.850;2023-02-03T02:40:06;5.00;99.90
3942;DHT22;1985;48.592;8.850;2023-02-03T02:42:41;5.00;99.90
3942;DHT22;1985;48.592;8.850;2023-02-03T02:45:17;5.10;99.90
3942;DHT22;1985;48.592;8.850;2023-02-03T02:47:47;5.20;99.90
3942;DHT22;1985;48.592;8.850;2023-02-03T02:50:17;5.30;99.90
3942;DHT22;1985;48.592;8.850;2023-02-03T02:52:45;5.30;99.90
3942;DHT22;1985;48.592;8.850;2023-02-03T02:55:22;5.30;99.90
3942;DHT22;1985;48.592;8.850;2023-02-03T02:57:50;5.20;99.90
3942;DHT22;1985;48.592;8.850;2023-02-03T03:00:18;5.30;99.90
3942;DHT22;1985;48.592;8.850;2023-02-03T03:02:44;5.10;99.90
3942;DHT22;1985;48.592;8.850;2023-02-03T03:05:11;5.00;99.90
3942;DHT22;1985;48.592;8.850;2023-02-03T03:07:44;4.90;99.90
3942;DHT22;1985;48.592;8.850;2023-02-03T03:10:15;4.90;99.90
3942;DHT22;1985;48.592;8.850;2023-02-03T03:12:49;4.90;99.90
3942;DHT22;1985;48.592;8.850;2023-02-03T03:15:20;4.80;99.90
3942;DHT22;1985;48.592;8.850;2023-02-03T03:20:29;4.80;99.90
3942;DHT22;1985;48.592;8.850;2023-02-03T03:23:01;5.00;99.90
3942;DHT22;1985;48.592;8.850;2023-02-03T03:25:40;5.00;99.90
3942;DHT22;1985;48.592;8.850;2023-02-03T03:28:12;5.10;99.90
3942;DHT22;1985;48.592;8.850;2023-02-03T03:30:39;5.10;99.90
3942;DHT22;1985;48.592;8.850;2023-02-03T03:33:05;5.00;99.90
3942;DHT22;1985;48.592;8.850;2023-02-03T03:35:48;4.90;99.90
3942;DHT22;1985;48.592;8.850;2023-02-03T03:38:22;4.80;99.90
3942;DHT22;1985;48.592;8.850;2023-02-03T03:40:54;4.80;99.90
3942;DHT22;1985;48.592;8.850;2023-02-03T03:43:27;4.90;99.90
3942;DHT22;1985;48.592;8.850;2023-02-03T03:45:59;5.00;99.90
3942;DHT22;1985;48.592;8.850;2023-02-03T03:48:36;5.10;99.90
3942;DHT22;1985;48.592;8.850;2023-02-03T03:51:11;5.20;99.90
3942;DHT22;1985;48.592;8.850;2023-02-03T03:53:40;5.20;99.90
3942;DHT22;1985;48.592;8.850;2023-02-03T03:56:11;5.30;99.90
3942;DHT22;1985;48.592;8.850;2023-02-03T03:58:41;5.40;99.90
3942;DHT22;1985;48.592;8.850;2023-02-03T04:01:10;5.40;99.90
3942;DHT22;1985;48.592;8.850;2023-02-03T04:03:47;5.50;99.90
3942;DHT22;1985;48.592;8.850;2023-02-03T04:06:13;5.40;99.90
3942;DHT22;1985;48.592;8.850;2023-02-03T04:08:39;5.50;99.90
3942;DHT22;1985;48.592;8.850;2023-02-03T04:11:05;5.60;99.90
3942;DHT22;1985;48.592;8.850;2023-02-03T04:13:31;5.60;99.90
3942;DHT22;1985;48.592;8.850;2023-02-03T04:15:57;5.70;99.90
3942;DHT22;1985;48.592;8.850;2023-02-03T04:18:23;5.70;99.90
3942;DHT22;1985;48.592;8.850;2023-02-03T04:20:48;5.70;99.90
3942;DHT22;1985;48.592;8.850;2023-02-03T04:23:14;5.50;99.90
3942;DHT22;1985;48.592;8.850;2023-02-03T04:25:39;5.30;99.90
3942;DHT22;1985;48.592;8.850;2023-02-03T04:28:05;5.30;99.90
3942;DHT22;1985;48.592;8.850;2023-02-03T04:30:31;5.30;99.90
3942;DHT22;1985;48.592;8.850;2023-02-03T04:32:56;5.40;99.90
3942;DHT22;1985;48.592;8.850;2023-02-03T04:35:22;5.30;99.90
3942;DHT22;1985;48.592;8.850;2023-02-03T04:37:48;5.30;99.90
3942;DHT22;1985;48.592;8.850;2023-02-03T04:40:13;5.30;99.90
3942;DHT22;1985;48.592;8.850;2023-02-03T04:42:40;5.30;99.90
3942;DHT22;1985;48.592;8.850;2023-02-03T04:45:07;5.40;99.90
3942;DHT22;1985;48.592;8.850;2023-02-03T04:47:33;5.30;99.90
3942;DHT22;1985;48.592;8.850;2023-02-03T04:49:59;5.10;99.90
3942;DHT22;1985;48.592;8.850;2023-02-03T04:52:25;5.10;99.90
3942;DHT22;1985;48.592;8.850;2023-02-03T04:54:51;5.10;99.90
3942;DHT22;1985;48.592;8.850;2023-02-03T04:57:16;5.00;99.90
3942;DHT22;1985;48.592;8.850;2023-02-03T04:59:42;5.10;99.90
3942;DHT22;1985;48.592;8.850;2023-02-03T05:02:07;5.10;99.90
3942;DHT22;1985;48.592;8.850;2023-02-03T05:04:33;5.00;99.90
3942;DHT22;1985;48.592;8.850;2023-02-03T05:06:59;5.00;99.90
3942;DHT22;1985;48.592;8.850;2023-02-03T05:09:25;4.90;99.90
3942;DHT22;1985;48.592;8.850;2023-02-03T05:11:51;5.00;99.90
3942;DHT22;1985;48.592;8.850;2023-02-03T05:14:19;5.00;99.90
3942;DHT22;1985;48.592;8.850;2023-02-03T05:16:45;5.10;99.90
3942;DHT22;1985;48.592;8.850;2023-02-03T05:19:10;5.10;99.90
3942;DHT22;1985;48.592;8.850;2023-02-03T05:21:36;5.10;99.90
3942;DHT22;1985;48.592;8.850;2023-02-03T05:24:02;5.00;99.90
3942;DHT22;1985;48.592;8.850;2023-02-03T05:26:31;5.00;99.90
3942;DHT22;1985;48.592;8.850;2023-02-03T05:28:57;5.00;99.90
3942;DHT22;1985;48.592;8.850;2023-02-03T05:31:22;5.00;99.90
3942;DHT22;1985;48.592;8.850;2023-02-03T05:33:48;4.90;99.90
3942;DHT22;1985;48.592;8.850;2023-02-03T05:36:14;4.90;99.90
3942;DHT22;1985;48.592;8.850;2023-02-03T05:38:39;5.00;99.90
3942;DHT22;1985;48.592;8.850;2023-02-03T05:41:08;5.00;99.90
3942;DHT22;1985;48.592;8.850;2023-02-03T05:43:53;5.10;99.90
3942;DHT22;1985;48.592;8.850;2023-02-03T05:46:18;5.00;99.90
3942;DHT22;1985;48.592;8.850;2023-02-03T05:48:44;5.00;99.90
3942;DHT22;1985;48.592;8.850;2023-02-03T05:51:10;4.90;99.90
3942;DHT22;1985;48.592;8.850;2023-02-03T05:53:36;4.80;99.90
3942;DHT22;1985;48.592;8.850;2023-02-03T05:56:01;4.90;99.90
3942;DHT22;1985;48.592;8.850;2023-02-03T05:58:27;4.90;99.90
3942;DHT22;1985;48.592;8.850;2023-02-03T06:00:52;4.90;99.90
3942;DHT22;1985;48.592;8.850;2023-02-03T06:03:18;4.90;99.90
3942;DHT22;1985;48.592;8.850;2023-02-03T06:05:44;4.90;99.90
3942;DHT22;1985;48.592;8.850;2023-02-03T06:08:09;4.90;99.90
3942;DHT22;1985;48.592;8.850;2023-02-03T06:10:35;4.90;99.90
3942;DHT22;1985;48.592;8.850;2023-02-03T06:13:27;4.90;99.90
3942;DHT22;1985;48.592;8.850;2023-02-03T06:15:53;5.00;99.90
3942;DHT22;1985;48.592;8.850;2023-02-03T06:18:19;5.00;99.90
3942;DHT22;1985;48.592;8.850;2023-02-03T06:20:44;5.10;99.90
3942;DHT22;1985;48.592;8.850;2023-02-03T06:23:10;5.10;99.90
3942;DHT22;1985;48.592;8.850;2023-02-03T06:25:36;5.20;99.90
3942;DHT22;1985;48.592;8.850;2023-02-03T06:28:02;5.30;99.90
3942;DHT22;1985;48.592;8.850;2023-02-03T06:30:27;5.30;99.90
3942;DHT22;1985;48.592;8.850;2023-02-03T06:32:53;5.40;99.90
3942;DHT22;1985;48.592;8.850;2023-02-03T06:35:21;5.40;99.90
3942;DHT22;1985;48.592;8.850;2023-02-03T06:37:47;5.30;99.90
3942;DHT22;1985;48.592;8.850;2023-02-03T06:40:13;5.40;99.90
3942;DHT22;1985;48.592;8.850;2023-02-03T06:42:38;5.30;99.90
3942;DHT22;1985;48.592;8.850;2023-02-03T06:45:04;5.30;99.90
3942;DHT22;1985;48.592;8.850;2023-02-03T06:47:30;5.20;99.90
3942;DHT22;1985;48.592;8.850;2023-02-03T06:49:55;5.10;99.90
3942;DHT22;1985;48.592;8.850;2023-02-03T06:52:21;5.10;99.90
3942;DHT22;1985;48.592;8.850;2023-02-03T06:54:46;5.10;99.90
3942;DHT22;1985;48.592;8.850;2023-02-03T06:57:12;5.10;99.90
3942;DHT22;1985;48.592;8.850;2023-02-03T06:59:38;5.10;99.90
3942;DHT22;1985;48.592;8.850;2023-02-03T07:02:04;5.00;99.90
3942;DHT22;1985;48.592;8.850;2023-02-03T07:04:29;4.90;99.90
3942;DHT22;1985;48.592;8.850;2023-02-03T07:06:55;4.90;99.90
3942;DHT22;1985;48.592;8.850;2023-02-03T07:09:22;4.80;99.90
3942;DHT22;1985;48.592;8.850;2023-02-03T07:11:47;4.80;99.90
3942;DHT22;1985;48.592;8.850;2023-02-03T07:14:13;4.80;99.90
3942;DHT22;1985;48.592;8.850;2023-02-03T07:16:39;4.80;99.90
3942;DHT22;1985;48.592;8.850;2023-02-03T07:19:04;4.70;99.90
3942;DHT22;1985;48.592;8.850;2023-02-03T07:21:30;4.70;99.90
3942;DHT22;1985;48.592;8.850;2023-02-03T07:23:56;4.70;99.90
3942;DHT22;1985;48.592;8.850;2023-02-03T07:26:22;4.70;99.90
3942;DHT22;1985;48.592;8.850;2023-02-03T07:28:48;4.70;99.90
3942;DHT22;1985;48.592;8.850;2023-02-03T07:31:14;4.60;99.90
3942;DHT22;1985;48.592;8.850;2023-02-03T07:33:40;4.60;99.90
3942;DHT22;1985;48.592;8.850;2023-02-03T07:36:06;4.70;99.90
3942;DHT22;1985;48.592;8.850;2023-02-03T07:38:32;4.70;99.90
3942;DHT22;1985;48.592;8.850;2023-02-03T07:40:58;4.70;99.90
3942;DHT22;1985;48.592;8.850;2023-02-03T07:43:23;4.70;99.90
3942;DHT22;1985;48.592;8.850;2023-02-03T07:45:49;4.80;99.90
3942;DHT22;1985;48.592;8.850;2023-02-03T07:48:15;4.80;99.90
3942;DHT22;1985;48.592;8.850;2023-02-03T07:50:40;4.80;99.90
3942;DHT22;1985;48.592;8.850;2023-02-03T07:53:06;4.80;99.90
3942;DHT22;1985;48.592;8.850;2023-02-03T07:55:37;4.90;99.90
3942;DHT22;1985;48.592;8.850;2023-02-03T07:58:03;4.90;99.90
3942;DHT22;1985;48.592;8.850;2023-02-03T08:00:29;5.00;99.90
3942;DHT22;1985;48.592;8.850;2023-02-03T08:02:55;5.00;99.90
3942;DHT22;1985;48.592;8.850;2023-02-03T08:05:20;5.20;99.90
3942;DHT22;1985;48.592;8.850;2023-02-03T08:07:46;5.30;99.90
3942;DHT22;1985;48.592;8.850;2023-02-03T08:10:13;5.30;99.90
3942;DHT22;1985;48.592;8.850;2023-02-03T08:12:40;5.30;99.90
3942;DHT22;1985;48.592;8.850;2023-02-03T08:15:08;5.20;99.90
3942;DHT22;1985;48.592;8.850;2023-02-03T08:17:34;5.20;99.90
3942;DHT22;1985;48.592;8.850;2023-02-03T08:19:59;5.30;99.90
3942;DHT22;1985;48.592;8.850;2023-02-03T08:22:25;5.40;99.90
3942;DHT22;1985;48.592;8.850;2023-02-03T08:24:51;5.50;99.90
3942;DHT22;1985;48.592;8.850;2023-02-03T08:27:19;5.40;99.90
3942;DHT22;1985;48.592;8.850;2023-02-03T08:29:45;5.50;99.90
3942;DHT22;1985;48.592;8.850;2023-02-03T08:32:14;5.50;99.90
3942;DHT22;1985;48.592;8.850;2023-02-03T08:34:40;5.50;99.90
3942;DHT22;1985;48.592;8.850;2023-02-03T08:37:06;5.50;99.90
3942;DHT22;1985;48.592;8.850;2023-02-03T08:39:33;5.60;99.90
3942;DHT22;1985;48.592;8.850;2023-02-03T08:41:59;5.70;99.90
3942;DHT22;1985;48.592;8.850;2023-02-03T08:44:25;5.80;99.90
3942;DHT22;1985;48.592;8.850;2023-02-03T08:46:52;5.80;99.90
3942;DHT22;1985;48.592;8.850;2023-02-03T08:49:18;5.90;99.90
3942;DHT22;1985;48.592;8.850;2023-02-03T08:51:47;5.90;99.90
3942;DHT22;1985;48.592;8.850;2023-02-03T08:54:14;5.90;99.90
3942;DHT22;1985;48.592;8.850;2023-02-03T08:56:39;5.90;99.90
3942;DHT22;1985;48.592;8.850;2023-02-03T08:59:06;6.00;99.90
3942;DHT22;1985;48.592;8.850;2023-02-03T09:01:32;6.00;99.90
3942;DHT22;1985;48.592;8.850;2023-02-03T09:03:57;6.00;99.90
3942;DHT22;1985;48.592;8.850;2023-02-03T09:06:25;6.00;99.90
3942;DHT22;1985;48.592;8.850;2023-02-03T09:08:51;5.70;99.90
3942;DHT22;1985;48.592;8.850;2023-02-03T09:11:17;5.60;99.90
3942;DHT22;1985;48.592;8.850;2023-02-03T09:13:43;5.70;99.90
3942;DHT22;1985;48.592;8.850;2023-02-03T09:16:14;5.60;99.90
3942;DHT22;1985;48.592;8.850;2023-02-03T09:18:47;5.50;99.90
3942;DHT22;1985;48.592;8.850;2023-02-03T09:21:13;5.60;99.90
3942;DHT22;1985;48.592;8.850;2023-02-03T09:23:43;5.50;99.90
3942;DHT22;1985;48.592;8.850;2023-02-03T09:26:12;5.50;99.90
3942;DHT22;1985;48.592;8.850;2023-02-03T09:28:37;5.60;99.90
3942;DHT22;1985;48.592;8.850;2023-02-03T09:31:09;5.70;99.90
3942;DHT22;1985;48.592;8.850;2023-02-03T09:33:35;5.80;99.90
3942;DHT22;1985;48.592;8.850;2023-02-03T09:36:01;5.80;99.90
3942;DHT22;1985;48.592;8.850;2023-02-03T09:38:28;5.90;99.90
3942;DHT22;1985;48.592;8.850;2023-02-03T09:41:04;5.90;99.90
3942;DHT22;1985;48.592;8.850;2023-02-03T09:43:38;5.90;99.90
3942;DHT22;1985;48.592;8.850;2023-02-03T09:46:16;5.90;99.90
3942;DHT22;1985;48.592;8.850;2023-02-03T09:48:47;5.90;99.90
3942;DHT22;1985;48.592;8.850;2023-02-03T09:51:19;5.90;99.90
3942;DHT22;1985;48.592;8.850;2023-02-03T09:53:58;5.80;99.90
3942;DHT22;1985;48.592;8.850;2023-02-03T09:56:34;5.80;99.90
3942;DHT22;1985;48.592;8.850;2023-02-03T09:59:02;5.80;99.90
3942;DHT22;1985;48.592;8.850;2023-02-03T10:04:40;5.90;99.90
3942;DHT22;1985;48.592;8.850;2023-02-03T10:07:12;6.00;99.90
3942;DHT22;1985;48.592;8.850;2023-02-03T10:09:49;6.00;99.90
3942;DHT22;1985;48.592;8.850;2023-02-03T10:12:43;6.00;99.90
3942;DHT22;1985;48.592;8.850;2023-02-03T10:16:03;6.00;99.90
3942;DHT22;1985;48.592;8.850;2023-02-03T10:18:29;6.20;99.90
3942;DHT22;1985;48.592;8.850;2023-02-03T10:21:02;6.50;99.90
3942;DHT22;1985;48.592;8.850;2023-02-03T10:23:39;6.70;99.90
3942;DHT22;1985;48.592;8.850;2023-02-03T10:26:19;6.60;99.90
3942;DHT22;1985;48.592;8.850;2023-02-03T10:28:57;6.70;99.90
3942;DHT22;1985;48.592;8.850;2023-02-03T10:31:26;6.60;99.90
3942;DHT22;1985;48.592;8.850;2023-02-03T10:34:13;6.50;99.90
3942;DHT22;1985;48.592;8.850;2023-02-03T10:36:54;6.50;99.90
3942;DHT22;1985;48.592;8.850;2023-02-03T10:41:52;6.60;99.90
3942;DHT22;1985;48.592;8.850;2023-02-03T10:44:18;6.90;99.90
3942;DHT22;1985;48.592;8.850;2023-02-03T10:46:44;6.90;99.90
3942;DHT22;1985;48.592;8.850;2023-02-03T10:49:11;6.80;99.90
3942;DHT22;1985;48.592;8.850;2023-02-03T10:51:44;6.80;99.90
3942;DHT22;1985;48.592;8.850;2023-02-03T10:54:33;7.10;99.90
3942;DHT22;1985;48.592;8.850;2023-02-03T10:57:10;7.00;99.90
3942;DHT22;1985;48.592;8.850;2023-02-03T10:59:41;6.90;99.90
3942;DHT22;1985;48.592;8.850;2023-02-03T11:02:13;6.90;99.90
3942;DHT22;1985;48.592;8.850;2023-02-03T11:04:45;6.80;99.90
3942;DHT22;1985;48.592;8.850;2023-02-03T11:07:23;6.80;99.90
3942;DHT22;1985;48.592;8.850;2023-02-03T11:09:49;7.10;99.90
3942;DHT22;1985;48.592;8.850;2023-02-03T11:12:18;8.30;99.90
3942;DHT22;1985;48.592;8.850;2023-02-03T11:14:52;8.00;99.90
3942;DHT22;1985;48.592;8.850;2023-02-03T11:17:21;7.80;99.90
3942;DHT22;1985;48.592;8.850;2023-02-03T11:19:52;8.00;99.90
3942;DHT22;1985;48.592;8.850;2023-02-03T11:22:30;7.70;99.90
3942;DHT22;1985;48.592;8.850;2023-02-03T11:24:58;7.60;99.90
3942;DHT22;1985;48.592;8.850;2023-02-03T11:27:29;7.50;99.90
3942;DHT22;1985;48.592;8.850;2023-02-03T11:32:42;7.70;99.90
3942;DHT22;1985;48.592;8.850;2023-02-03T11:35:26;7.70;99.90
3942;DHT22;1985;48.592;8.850;2023-02-03T11:38:00;7.70;99.90
3942;DHT22;1985;48.592;8.850;2023-02-03T11:40:31;7.40;99.90
3942;DHT22;1985;48.592;8.850;2023-02-03T11:43:02;7.20;99.90
3942;DHT22;1985;48.592;8.850;2023-02-03T11:45:42;7.30;99.90
3942;DHT22;1985;48.592;8.850;2023-02-03T11:48:38;7.20;99.90
3942;DHT22;1985;48.592;8.850;2023-02-03T11:54:22;7.10;99.90
3942;DHT22;1985;48.592;8.850;2023-02-03T12:21:45;6.90;99.90
3942;DHT22;1985;48.592;8.850;2023-02-03T12:27:44;7.00;99.90
3942;DHT22;1985;48.592;8.850;2023-02-03T12:30:19;7.10;99.90
3942;DHT22;1985;48.592;8.850;2023-02-03T12:32:54;7.10;99.90
3942;DHT22;1985;48.592;8.850;2023-02-03T12:35:49;7.10;99.90
3942;DHT22;1985;48.592;8.850;2023-02-03T12:40:59;7.30;99.90
3942;DHT22;1985;48.592;8.850;2023-02-03T12:45:57;7.30;99.90
3942;DHT22;1985;48.592;8.850;2023-02-03T12:48:31;7.30;99.90
3942;DHT22;1985;48.592;8.850;2023-02-03T12:51:05;7.20;99.90
3942;DHT22;1985;48.592;8.850;2023-02-03T12:53:34;7.10;99.90
3942;DHT22;1985;48.592;8.850;2023-02-03T12:56:11;7.10;99.90
3942;DHT22;1985;48.592;8.850;2023-02-03T12:58:49;7.20;99.90
3942;DHT22;1985;48.592;8.850;2023-02-03T13:01:25;7.30;99.90
3942;DHT22;1985;48.592;8.850;2023-02-03T13:07:15;7.20;99.90
3942;DHT22;1985;48.592;8.850;2023-02-03T13:10:00;7.20;99.90
3942;DHT22;1985;48.592;8.850;2023-02-03T13:12:41;7.00;99.90
3942;DHT22;1985;48.592;8.850;2023-02-03T13:20:32;6.90;99.90
3942;DHT22;1985;48.592;8.850;2023-02-03T13:23:03;6.90;99.90
3942;DHT22;1985;48.592;8.850;2023-02-03T13:42:20;7.30;99.90
3942;DHT22;1985;48.592;8.850;2023-02-03T13:44:51;7.30;99.90
3942;DHT22;1985;48.592;8.850;2023-02-03T13:47:25;7.40;99.90
3942;DHT22;1985;48.592;8.850;2023-02-03T13:50:05;7.60;99.90
3942;DHT22;1985;48.592;8.850;2023-02-03T13:52:39;7.80;99.90
3942;DHT22;1985;48.592;8.850;2023-02-03T13:55:26;7.70;99.90
3942;DHT22;1985;48.592;8.850;2023-02-03T13:57:53;7.80;99.90
3942;DHT22;1985;48.592;8.850;2023-02-03T14:05:46;8.00;99.90
3942;DHT22;1985;48.592;8.850;2023-02-03T14:19:05;8.50;99.90
3942;DHT22;1985;48.592;8.850;2023-02-03T14:24:11;8.00;99.90
3942;DHT22;1985;48.592;8.850;2023-02-03T14:26:41;7.70;99.90
3942;DHT22;1985;48.592;8.850;2023-02-03T14:29:10;7.50;99.90
3942;DHT22;1985;48.592;8.850;2023-02-03T14:32:03;7.50;99.90
3942;DHT22;1985;48.592;8.850;2023-02-03T14:34:38;7.40;99.90
3942;DHT22;1985;48.592;8.850;2023-02-03T14:37:26;7.50;99.90
3942;DHT22;1985;48.592;8.850;2023-02-03T14:40:21;7.40;99.90
3942;DHT22;1985;48.592;8.850;2023-02-03T14:50:58;7.20;99.90
3942;DHT22;1985;48.592;8.850;2023-02-03T14:54:00;7.10;99.90
3942;DHT22;1985;48.592;8.850;2023-02-03T14:59:25;6.90;99.90
3942;DHT22;1985;48.592;8.850;2023-02-03T15:04:27;6.80;99.90
3942;DHT22;1985;48.592;8.850;2023-02-03T15:06:53;6.80;99.90
3942;DHT22;1985;48.592;8.850;2023-02-03T15:09:38;6.80;99.90
3942;DHT22;1985;48.592;8.850;2023-02-03T15:12:18;6.80;99.90
3942;DHT22;1985;48.592;8.850;2023-02-03T15:14:47;6.70;99.90
3942;DHT22;1985;48.592;8.850;2023-02-03T15:19:47;6.60;99.90
3942;DHT22;1985;48.592;8.850;2023-02-03T15:22:24;6.60;99.90
3942;DHT22;1985;48.592;8.850;2023-02-03T15:25:00;6.70;99.90
3942;DHT22;1985;48.592;8.850;2023-02-03T15:27:31;6.80;99.90
3942;DHT22;1985;48.592;8.850;2023-02-03T15:29:57;6.80;99.90
3942;DHT22;1985;48.592;8.850;2023-02-03T15:32:38;6.70;99.90
3942;DHT22;1985;48.592;8.850;2023-02-03T15:35:11;6.70;99.90
3942;DHT22;1985;48.592;8.850;2023-02-03T15:37:48;6.70;99.90
3942;DHT22;1985;48.592;8.850;2023-02-03T15:40:20;6.70;99.90
3942;DHT22;1985;48.592;8.850;2023-02-03T15:42:54;6.80;99.90
3942;DHT22;1985;48.592;8.850;2023-02-03T15:45:34;6.80;99.90
3942;DHT22;1985;48.592;8.850;2023-02-03T15:48:06;6.70;99.90
3942;DHT22;1985;48.592;8.850;2023-02-03T15:50:52;6.70;99.90
3942;DHT22;1985;48.592;8.850;2023-02-03T15:53:25;6.70;99.90
3942;DHT22;1985;48.592;8.850;2023-02-03T15:55:55;6.80;99.90
3942;DHT22;1985;48.592;8.850;2023-02-03T15:58:28;6.70;99.90
3942;DHT22;1985;48.592;8.850;2023-02-03T16:00:59;6.80;99.90
3942;DHT22;1985;48.592;8.850;2023-02-03T16:03:31;6.70;99.90
3942;DHT22;1985;48.592;8.850;2023-02-03T16:06:08;6.70;99.90
3942;DHT22;1985;48.592;8.850;2023-02-03T16:08:42;6.80;99.90
3942;DHT22;1985;48.592;8.850;2023-02-03T16:13:55;6.90;99.90
3942;DHT22;1985;48.592;8.850;2023-02-03T16:16:27;6.90;99.90
3942;DHT22;1985;48.592;8.850;2023-02-03T16:18:58;6.80;99.90
3942;DHT22;1985;48.592;8.850;2023-02-03T16:29:45;6.80;99.90
3942;DHT22;1985;48.592;8.850;2023-02-03T16:32:29;6.70;99.90
3942;DHT22;1985;48.592;8.850;2023-02-03T16:35:13;6.50;99.90
3942;DHT22;1985;48.592;8.850;2023-02-03T16:38:10;6.50;99.90
3942;DHT22;1985;48.592;8.850;2023-02-03T16:40:59;6.50;99.90
3942;DHT22;1985;48.592;8.850;2023-02-03T16:43:44;6.40;99.90
3942;DHT22;1985;48.592;8.850;2023-02-03T16:46:28;6.40;99.90
3942;DHT22;1985;48.592;8.850;2023-02-03T16:49:12;6.40;99.90
3942;DHT22;1985;48.592;8.850;2023-02-03T16:51:56;6.40;99.90
3942;DHT22;1985;48.592;8.850;2023-02-03T16:54:22;6.40;99.90
3942;DHT22;1985;48.592;8.850;2023-02-03T16:56:48;6.40;99.90
3942;DHT22;1985;48.592;8.850;2023-02-03T16:59:16;6.40;99.90
3942;DHT22;1985;48.592;8.850;2023-02-03T17:01:42;6.40;99.90
3942;DHT22;1985;48.592;8.850;2023-02-03T17:04:08;6.40;99.90
3942;DHT22;1985;48.592;8.850;2023-02-03T17:06:37;6.40;99.90
3942;DHT22;1985;48.592;8.850;2023-02-03T17:09:03;6.50;99.90
3942;DHT22;1985;48.592;8.850;2023-02-03T17:11:29;6.50;99.90
3942;DHT22;1985;48.592;8.850;2023-02-03T17:13:56;6.50;99.90
3942;DHT22;1985;48.592;8.850;2023-02-03T17:16:23;6.40;99.90
3942;DHT22;1985;48.592;8.850;2023-02-03T17:18:50;6.40;99.90
3942;DHT22;1985;48.592;8.850;2023-02-03T17:21:19;6.50;99.90
3942;DHT22;1985;48.592;8.850;2023-02-03T17:23:45;6.50;99.90
3942;DHT22;1985;48.592;8.850;2023-02-03T17:26:10;6.50;99.90
3942;DHT22;1985;48.592;8.850;2023-02-03T17:28:40;6.50;99.90
3942;DHT22;1985;48.592;8.850;2023-02-03T17:31:13;6.60;99.90
3942;DHT22;1985;48.592;8.850;2023-02-03T17:33:39;6.50;99.90
3942;DHT22;1985;48.592;8.850;2023-02-03T17:36:06;6.60;99.90
3942;DHT22;1985;48.592;8.850;2023-02-03T17:38:38;6.50;99.90
3942;DHT22;1985;48.592;8.850;2023-02-03T17:41:11;6.50;99.90
3942;DHT22;1985;48.592;8.850;2023-02-03T17:43:37;6.50;99.90
3942;DHT22;1985;48.592;8.850;2023-02-03T17:46:02;6.50;99.90
3942;DHT22;1985;48.592;8.850;2023-02-03T17:48:29;6.30;99.90
3942;DHT22;1985;48.592;8.850;2023-02-03T17:50:54;6.30;99.90
3942;DHT22;1985;48.592;8.850;2023-02-03T17:53:29;6.40;99.90
3942;DHT22;1985;48.592;8.850;2023-02-03T17:55:54;6.30;99.90
3942;DHT22;1985;48.592;8.850;2023-02-03T17:58:20;6.10;99.90
3942;DHT22;1985;48.592;8.850;2023-02-03T18:00:46;6.00;99.90
3942;DHT22;1985;48.592;8.850;2023-02-03T18:03:11;6.00;99.90
3942;DHT22;1985;48.592;8.850;2023-02-03T18:05:37;6.10;99.90
3942;DHT22;1985;48.592;8.850;2023-02-03T18:08:04;6.20;99.90
3942;DHT22;1985;48.592;8.850;2023-02-03T18:10:31;6.30;99.90
3942;DHT22;1985;48.592;8.850;2023-02-03T18:12:57;6.40;99.90
3942;DHT22;1985;48.592;8.850;2023-02-03T18:15:24;6.50;99.90
3942;DHT22;1985;48.592;8.850;2023-02-03T18:17:50;6.50;99.90
3942;DHT22;1985;48.592;8.850;2023-02-03T18:20:16;6.50;99.90
3942;DHT22;1985;48.592;8.850;2023-02-03T18:22:43;6.40;99.90
3942;DHT22;1985;48.592;8.850;2023-02-03T18:25:09;6.20;99.90
3942;DHT22;1985;48.592;8.850;2023-02-03T18:27:35;6.10;99.90
3942;DHT22;1985;48.592;8.850;2023-02-03T18:30:01;6.10;99.90
3942;DHT22;1985;48.592;8.850;2023-02-03T18:32:26;6.00;99.90
3942;DHT22;1985;48.592;8.850;2023-02-03T18:34:52;6.00;99.90
3942;DHT22;1985;48.592;8.850;2023-02-03T18:37:17;6.00;99.90
3942;DHT22;1985;48.592;8.850;2023-02-03T18:39:44;6.00;99.90
3942;DHT22;1985;48.592;8.850;2023-02-03T18:42:11;6.10;99.90
3942;DHT22;1985;48.592;8.850;2023-02-03T18:44:36;6.10;99.90
3942;DHT22;1985;48.592;8.850;2023-02-03T18:47:02;6.10;99.90
3942;DHT22;1985;48.592;8.850;2023-02-03T18:49:33;6.10;99.90